Alexander, North Carolina
Current Conditions -  °F | °C
As of 4:54 PM on Thursday 23 Oct 2014 (Local Time) from KAVL Reporting Station
Clear Clear  
Wind Chill: 63°   Ceiling: Unl
Heat Index: 63°   Visibility: 10mi
Dew Point: 36°   Wind: 18mph
Humidity: 37%   Direction: 340°NNW
Pressure: 30.04"   Gusts: NA
Location:  35.69°N, 82.66°W
Report Text: KAVL 232054Z 34016KT 10SM CLR 17/02 A3004 RMK AO2 SLP163 T01720022 55012
Loading
Personal Weather Stations






























Interactive Weather Map
Tropical Storm Tracking
New forecast layout! Learn more

10-Day Weather Forecast

Advertisements
Track Severe Weather on mobile